Time;durP1;ratioP1;P1;durP2;ratioP2;P2;SDS_P1;SDS_P2;PMS_P1;PMS_P2;Temp;Humidity;BMP_temperature;BMP_pressure;BME280_temperature;BME280_humidity;BME280_pressure;Samples;Min_cycle;Max_cycle;Signal;HPM_P1;HPM_P2
2023/10/23 00:00:59;;;;;;;;;;;;;;;20.60;61.02;97027.94;610897;232;62344;-67
2023/10/23 00:03:27;;;;;;;;;;;;;;;20.60;61.28;97029.81;610953;232;68737;-67
2023/10/23 00:05:54;;;;;;;;;;;;;;;20.60;61.47;97032.48;610973;232;66641;-67
2023/10/23 00:08:22;;;;;;;;;;;;;;;20.60;60.51;97033.28;610945;232;64601;-67
2023/10/23 00:10:49;;;;;;;;;;;;;;;20.60;60.92;97022.59;610920;232;68621;-67
2023/10/23 00:13:17;;;;;;;;;;;;;;;20.59;60.52;97028.98;610964;232;66187;-67
2023/10/23 00:15:44;;;;;;;;;;;;;;;20.60;61.27;97029.81;610940;232;64895;-67
2023/10/23 00:18:12;;;;;;;;;;;;;;;20.60;61.37;97032.48;611028;232;66229;-67
2023/10/23 00:20:40;;;;;;;;;;;;;;;20.59;61.34;97031.66;610967;232;67746;-67
2023/10/23 00:23:08;;;;;;;;;;;;;;;20.59;61.20;97010.30;610943;232;65619;-67
2023/10/23 00:25:35;;;;;;;;;;;;;;;20.59;61.29;97017.51;610969;232;66325;-67
2023/10/23 00:28:03;;;;;;;;;;;;;;;20.59;61.06;97018.30;610898;232;66404;-67
2023/10/23 00:30:34;;;;;;;;;;;;;;;20.58;61.44;97014.05;611022;232;64875;-67
2023/10/23 00:32:59;;;;;;;;;;;;;;;20.59;61.83;97014.84;610880;232;66453;-67
2023/10/23 00:35:27;;;;;;;;;;;;;;;20.59;61.08;97015.64;610945;232;68946;-67
2023/10/23 00:37:54;;;;;;;;;;;;;;;20.58;61.41;97016.72;610977;232;63524;-68
2023/10/23 00:40:22;;;;;;;;;;;;;;;20.59;61.08;97017.51;610985;232;68637;-67
2023/10/23 00:42:50;;;;;;;;;;;;;;;20.59;61.40;97025.52;610987;232;68720;-67
2023/10/23 00:45:17;;;;;;;;;;;;;;;20.59;61.17;97006.83;610930;232;62343;-67
2023/10/23 00:47:45;;;;;;;;;;;;;;;20.59;60.92;97014.84;610950;232;68968;-67
2023/10/23 00:50:13;;;;;;;;;;;;;;;20.58;60.83;97008.70;610946;232;66392;-67
2023/10/23 00:52:40;;;;;;;;;;;;;;;20.58;60.66;97002.57;610974;232;63296;-67
2023/10/23 00:55:08;;;;;;;;;;;;;;;20.58;61.32;97011.38;611005;232;66419;-67
2023/10/23 00:57:36;;;;;;;;;;;;;;;20.57;61.49;97004.45;610925;232;68729;-67
2023/10/23 01:00:04;;;;;;;;;;;;;;;20.57;61.30;97017.80;610957;232;64677;-67
2023/10/23 01:02:32;;;;;;;;;;;;;;;20.58;60.74;97019.38;609246;232;68738;-67
2023/10/23 01:04:59;;;;;;;;;;;;;;;20.58;60.77;97014.05;609005;233;68449;-67
2023/10/23 01:07:27;;;;;;;;;;;;;;;20.58;60.20;97010.58;609073;233;62357;-67
2023/10/23 01:09:54;;;;;;;;;;;;;;;20.58;61.85;97014.05;609008;233;66312;-67
2023/10/23 01:12:22;;;;;;;;;;;;;;;20.58;61.53;97018.59;609015;233;69505;-67
2023/10/23 01:14:50;;;;;;;;;;;;;;;20.58;61.08;97023.93;609027;233;62213;-67
2023/10/23 01:17:18;;;;;;;;;;;;;;;20.58;60.78;97019.38;608975;233;66306;-67
2023/10/23 01:19:46;;;;;;;;;;;;;;;20.58;60.81;97023.93;609007;233;68550;-67
2023/10/23 01:22:13;;;;;;;;;;;;;;;20.57;60.74;97017.80;609102;233;62566;-67
2023/10/23 01:24:42;;;;;;;;;;;;;;;20.57;59.88;97031.14;609023;233;69069;-67
2023/10/23 01:27:10;;;;;;;;;;;;;;;20.58;61.12;97024.73;609051;233;68637;-67
2023/10/23 01:29:37;;;;;;;;;;;;;;;20.58;61.65;97030.06;609006;233;65530;-67
2023/10/23 01:32:05;;;;;;;;;;;;;;;20.57;61.78;97024.98;609008;233;69787;-67
2023/10/23 01:34:33;;;;;;;;;;;;;;;20.57;61.18;97025.80;609066;233;68970;-67
2023/10/23 01:37:00;;;;;;;;;;;;;;;20.57;61.19;97023.13;609044;233;63482;-67
2023/10/23 01:39:28;;;;;;;;;;;;;;;20.55;60.71;97030.61;609022;233;66295;-67
2023/10/23 01:41:55;;;;;;;;;;;;;;;20.57;61.21;97032.98;609030;233;68614;-67
2023/10/23 01:44:23;;;;;;;;;;;;;;;20.56;61.42;97026.06;608993;233;63482;-67
2023/10/23 01:46:50;;;;;;;;;;;;;;;20.56;61.80;97031.40;609072;233;66483;-67
2023/10/23 01:49:18;;;;;;;;;;;;;;;20.56;61.03;97026.06;609002;233;68992;-67
2023/10/23 01:51:45;;;;;;;;;;;;;;;20.56;61.33;97026.06;609055;233;64655;-67
2023/10/23 01:54:13;;;;;;;;;;;;;;;20.55;60.28;97024.47;609043;233;68278;-67
2023/10/23 01:56:41;;;;;;;;;;;;;;;20.57;61.09;97030.31;608998;233;68929;-67
2023/10/23 01:59:08;;;;;;;;;;;;;;;20.55;61.06;97027.94;609042;233;64701;-67
2023/10/23 02:01:38;;;;;;;;;;;;;;;20.56;62.03;97034.86;608967;233;68792;-68
2023/10/23 02:04:05;;;;;;;;;;;;;;;20.55;60.96;97030.61;608912;233;66319;-67
2023/10/23 02:06:33;;;;;;;;;;;;;;;20.55;60.83;97025.27;609024;233;62344;-68
2023/10/23 02:09:01;;;;;;;;;;;;;;;20.55;60.81;97030.61;609041;233;66304;-67
2023/10/23 02:11:29;;;;;;;;;;;;;;;20.55;61.67;97033.27;609029;233;68917;-67
2023/10/23 02:13:56;;;;;;;;;;;;;;;20.55;61.25;97035.15;609010;233;64764;-67
2023/10/23 02:16:24;;;;;;;;;;;;;;;20.55;60.91;97041.28;609015;233;66331;-67
2023/10/23 02:18:51;;;;;;;;;;;;;;;20.54;60.00;97039.69;609037;233;68747;-67
2023/10/23 02:21:19;;;;;;;;;;;;;;;20.55;60.00;97035.15;609010;233;64810;-67
2023/10/23 02:23:46;;;;;;;;;;;;;;;20.55;60.97;97040.48;609034;233;68806;-67
2023/10/23 02:26:14;;;;;;;;;;;;;;;20.55;60.74;97035.15;609068;233;66545;-67
2023/10/23 02:28:42;;;;;;;;;;;;;;;20.53;61.10;97035.41;609039;233;64944;-67
2023/10/23 02:31:09;;;;;;;;;;;;;;;20.55;61.32;97043.16;609023;233;68758;-67
2023/10/23 02:33:37;;;;;;;;;;;;;;;20.55;61.37;97045.83;608988;233;66110;-67
2023/10/23 02:36:05;;;;;;;;;;;;;;;20.53;60.79;97048.75;609024;233;62668;-67
2023/10/23 02:38:32;;;;;;;;;;;;;;;20.54;60.28;97053.04;609058;233;68799;-67
2023/10/23 02:41:00;;;;;;;;;;;;;;;20.53;61.00;97054.09;609051;233;68035;-67
2023/10/23 02:43:29;;;;;;;;;;;;;;;20.54;60.41;97050.38;609029;233;62203;-67
2023/10/23 02:45:58;;;;;;;;;;;;;;;20.53;60.19;97054.09;609045;233;68180;-67
2023/10/23 02:48:25;;;;;;;;;;;;;;;20.54;60.40;97055.71;608945;233;68515;-66
2023/10/23 02:50:54;;;;;;;;;;;;;;;20.54;61.16;97049.55;609058;233;63408;-66
2023/10/23 02:53:22;;;;;;;;;;;;;;;20.53;60.99;97046.08;609054;233;69658;-66
2023/10/23 02:55:50;;;;;;;;;;;;;;;20.54;61.28;97046.88;609012;233;66945;-67
2023/10/23 02:58:17;;;;;;;;;;;;;;;20.54;61.13;97058.38;609027;233;62365;-66
2023/10/23 03:00:45;;;;;;;;;;;;;;;20.53;60.68;97058.61;609263;232;66531;-67
2023/10/23 03:03:13;;;;;;;;;;;;;;;20.54;60.56;97057.55;610993;232;68673;-67
2023/10/23 03:05:41;;;;;;;;;;;;;;;20.53;59.71;97054.09;610934;232;63391;-66
2023/10/23 03:08:09;;;;;;;;;;;;;;;20.53;60.07;97045.25;610945;232;67055;-66
2023/10/23 03:10:36;;;;;;;;;;;;;;;20.53;60.91;97047.92;610922;232;69243;-67
2023/10/23 03:13:04;;;;;;;;;;;;;;;20.52;61.35;97052.47;610938;232;64478;-67
2023/10/23 03:15:31;;;;;;;;;;;;;;;20.52;60.99;97049.80;610993;232;69054;-66
2023/10/23 03:18:03;;;;;;;;;;;;;;;20.53;60.63;97050.59;610990;229;69115;-66
2023/10/23 03:20:30;;;;;;;;;;;;;;;20.52;61.37;97052.47;619208;229;65609;-66
2023/10/23 03:22:58;;;;;;;;;;;;;;;20.52;61.00;97057.81;618941;229;66583;-66
2023/10/23 03:25:26;;;;;;;;;;;;;;;20.52;60.52;97047.12;619238;229;69628;-66
2023/10/23 03:27:53;;;;;;;;;;;;;;;20.52;60.60;97057.02;619246;229;62303;-66
2023/10/23 03:30:22;;;;;;;;;;;;;;;20.52;59.73;97052.47;619318;229;68799;-66
2023/10/23 03:32:50;;;;;;;;;;;;;;;20.52;60.74;97055.14;619234;229;68555;-66
2023/10/23 03:35:17;;;;;;;;;;;;;;;20.53;60.88;97058.61;619248;229;64444;-66
2023/10/23 03:37:45;;;;;;;;;;;;;;;20.52;61.05;97055.14;619209;229;68612;-66
2023/10/23 03:40:13;;;;;;;;;;;;;;;20.52;59.99;97052.47;619252;229;68615;-66
2023/10/23 03:42:40;;;;;;;;;;;;;;;20.52;60.68;97055.14;619271;229;64711;-66
2023/10/23 03:45:08;;;;;;;;;;;;;;;20.51;60.29;97058.86;619202;229;66369;-66
2023/10/23 03:47:36;;;;;;;;;;;;;;;20.51;60.87;97053.52;619242;229;66639;-66
2023/10/23 03:50:04;;;;;;;;;;;;;;;20.52;60.31;97057.81;619257;229;62693;-66
2023/10/23 03:52:31;;;;;;;;;;;;;;;20.51;60.51;97061.53;619288;229;66462;-66
2023/10/23 03:54:59;;;;;;;;;;;;;;;20.51;60.16;97050.05;619318;229;66180;-66
2023/10/23 03:57:26;;;;;;;;;;;;;;;20.51;60.47;97044.71;619262;229;63337;-66
2023/10/23 03:59:54;;;;;;;;;;;;;;;20.51;60.29;97050.84;619227;229;68560;-66
2023/10/23 04:02:22;;;;;;;;;;;;;;;20.50;60.55;97043.92;618707;229;69077;-66
2023/10/23 04:04:49;;;;;;;;;;;;;;;20.51;59.80;97044.71;618625;229;62329;-66
2023/10/23 04:07:17;;;;;;;;;;;;;;;20.50;60.11;97046.59;618664;229;68790;-66
2023/10/23 04:09:45;;;;;;;;;;;;;;;20.50;59.77;97043.92;618608;229;69591;-67
2023/10/23 04:12:12;;;;;;;;;;;;;;;20.50;59.99;97043.13;618611;229;64743;-67
2023/10/23 04:14:40;;;;;;;;;;;;;;;20.50;59.83;97051.13;618592;229;66654;-67
2023/10/23 04:17:07;;;;;;;;;;;;;;;20.49;59.88;97042.33;618606;229;66429;-67
2023/10/23 04:19:35;;;;;;;;;;;;;;;20.51;59.82;97056.19;618692;229;64712;-67
2023/10/23 04:22:02;;;;;;;;;;;;;;;20.49;59.67;97053.00;618669;229;68366;-67
2023/10/23 04:24:30;;;;;;;;;;;;;;;20.49;59.59;97047.67;618635;229;68551;-68
2023/10/23 04:26:58;;;;;;;;;;;;;;;20.49;60.45;97047.67;618548;229;64745;-67
2023/10/23 04:29:25;;;;;;;;;;;;;;;20.50;60.60;97054.59;618637;229;66795;-67
2023/10/23 04:31:53;;;;;;;;;;;;;;;20.49;60.18;97047.67;618602;229;66598;-67
2023/10/23 04:34:21;;;;;;;;;;;;;;;20.49;60.41;97052.18;618675;229;64698;-67
2023/10/23 04:36:48;;;;;;;;;;;;;;;20.49;59.67;97057.52;618623;229;68552;-67
2023/10/23 04:39:15;;;;;;;;;;;;;;;20.49;59.80;97062.86;618584;229;68706;-67
2023/10/23 04:41:43;;;;;;;;;;;;;;;20.49;59.36;97063.69;618606;229;64712;-67
2023/10/23 04:44:10;;;;;;;;;;;;;;;20.48;60.35;97051.38;618642;229;68718;-67
2023/10/23 04:46:38;;;;;;;;;;;;;;;20.48;60.50;97055.92;618653;229;68548;-67
2023/10/23 04:49:06;;;;;;;;;;;;;;;20.48;60.55;97053.26;618603;229;63416;-67
2023/10/23 04:51:34;;;;;;;;;;;;;;;20.47;59.62;97057.80;618595;229;66412;-67
2023/10/23 04:54:01;;;;;;;;;;;;;;;20.48;59.27;97064.73;618581;229;68467;-67
2023/10/23 04:56:29;;;;;;;;;;;;;;;20.48;60.22;97064.73;618613;229;64547;-67
2023/10/23 04:58:57;;;;;;;;;;;;;;;20.48;59.60;97070.07;618670;229;68568;-67
2023/10/23 05:01:24;;;;;;;;;;;;;;;20.48;60.00;97072.73;618559;229;68511;-67
2023/10/23 05:03:52;;;;;;;;;;;;;;;20.49;60.18;97079.70;618618;229;63474;-67
2023/10/23 05:06:21;;;;;;;;;;;;;;;20.48;59.80;97080.75;618574;229;66429;-67
2023/10/23 05:08:48;;;;;;;;;;;;;;;20.48;59.19;97080.75;618553;229;66518;-67
2023/10/23 05:11:16;;;;;;;;;;;;;;;20.48;59.85;97091.42;618669;229;62402;-67
2023/10/23 05:13:45;;;;;;;;;;;;;;;20.48;60.71;97086.09;618623;229;68715;-67
2023/10/23 05:16:13;;;;;;;;;;;;;;;20.47;60.23;97087.16;618594;229;69279;-67
2023/10/23 05:18:41;;;;;;;;;;;;;;;20.47;59.76;97089.04;618612;229;64747;-67
2023/10/23 05:21:09;;;;;;;;;;;;;;;20.48;59.82;97095.97;618593;229;68728;-67
2023/10/23 05:23:38;;;;;;;;;;;;;;;20.48;59.52;97095.97;618604;229;69611;-67
2023/10/23 05:26:07;;;;;;;;;;;;;;;20.48;60.17;97106.65;618684;229;64684;-67
2023/10/23 05:28:35;;;;;;;;;;;;;;;20.48;59.22;97107.45;618607;228;66679;-66
2023/10/23 05:31:02;;;;;;;;;;;;;;;20.47;59.79;97105.06;618621;229;68706;-66
2023/10/23 05:33:30;;;;;;;;;;;;;;;20.47;60.13;97103.19;618612;229;64767;-67
2023/10/23 05:36:04;;;;;;;;;;;;;;;20.47;60.24;97107.73;618600;229;69345;-67
2023/10/23 05:38:32;;;;;;;;;;;;;;;20.47;60.23;97111.19;618649;229;66473;-67
2023/10/23 05:41:00;;;;;;;;;;;;;;;20.47;60.08;97107.73;618618;229;64859;-67
2023/10/23 05:43:28;;;;;;;;;;;;;;;20.46;59.52;97108.77;618610;229;68774;-67
2023/10/23 05:45:56;;;;;;;;;;;;;;;20.46;59.95;97114.11;618584;229;68891;-67
2023/10/23 05:48:24;;;;;;;;;;;;;;;20.47;60.34;97115.73;618635;229;62591;-67
2023/10/23 05:50:58;;;;;;;;;;;;;;;20.46;60.55;97116.78;618660;229;66430;-67
2023/10/23 05:53:26;;;;;;;;;;;;;;;20.46;60.38;97114.11;618589;229;68701;-67
2023/10/23 05:55:54;;;;;;;;;;;;;;;20.46;60.70;97111.44;614233;229;64861;-66
2023/10/23 05:58:21;;;;;;;;;;;;;;;20.46;60.78;97122.13;607578;233;66292;-67
2023/10/23 06:00:49;;;;;;;;;;;;;;;20.46;60.59;97120.28;609345;233;66424;-67
2023/10/23 06:03:16;;;;;;;;;;;;;;;20.46;60.59;97116.78;609403;233;62570;-66
2023/10/23 06:05:44;;;;;;;;;;;;;;;20.46;60.96;97120.28;609454;233;68630;-66
2023/10/23 06:08:11;;;;;;;;;;;;;;;20.46;61.24;97122.95;609371;233;68544;-66
2023/10/23 06:10:43;;;;;;;;;;;;;;;20.46;61.09;97117.61;609360;233;64860;-66
2023/10/23 06:13:11;;;;;;;;;;;;;;;20.46;61.02;97128.29;609363;233;68364;-69
2023/10/23 06:15:39;;;;;;;;;;;;;;;20.49;54.28;97118.92;609209;233;66650;-67
2023/10/23 06:18:06;;;;;;;;;;;;;;;20.58;54.36;97118.17;609446;233;64645;-68
2023/10/23 06:20:34;;;;;;;;;;;;;;;20.57;52.72;97124.59;609415;233;68850;-67
2023/10/23 06:23:03;;;;;;;;;;;;;;;20.56;54.59;97122.97;608729;233;68248;-67
2023/10/23 06:25:31;;;;;;;;;;;;;;;20.56;59.36;97127.52;608752;233;62482;-67
2023/10/23 06:27:59;;;;;;;;;;;;;;;20.55;57.95;97126.72;608701;233;68694;-68
2023/10/23 06:30:27;;;;;;;;;;;;;;;20.55;60.39;97126.72;608634;233;69025;-66
2023/10/23 06:32:54;;;;;;;;;;;;;;;20.56;60.51;97132.86;608414;233;64585;-67
2023/10/23 06:35:22;;;;;;;;;;;;;;;20.54;60.05;97135.80;608785;233;68604;-68
2023/10/23 06:37:50;;;;;;;;;;;;;;;20.54;60.42;97134.98;608721;233;66455;-66
2023/10/23 06:40:18;;;;;;;;;;;;;;;20.55;60.21;97136.60;608741;233;64904;-67
2023/10/23 06:42:45;;;;;;;;;;;;;;;20.54;60.59;97130.47;608801;233;68775;-67
2023/10/23 06:45:13;;;;;;;;;;;;;;;20.56;60.72;97132.86;608764;233;66260;-66
2023/10/23 06:47:40;;;;;;;;;;;;;;;20.55;60.56;97126.72;608830;233;64464;-66
2023/10/23 06:50:10;;;;;;;;;;;;;;;20.57;60.60;97129.11;608768;233;65852;-68
2023/10/23 06:52:37;;;;;;;;;;;;;;;20.55;60.36;97124.05;608748;233;66181;-68
2023/10/23 06:55:05;;;;;;;;;;;;;;;20.56;60.88;97128.31;608814;233;64645;-67
2023/10/23 06:57:33;;;;;;;;;;;;;;;20.56;60.66;97125.64;608758;233;68595;-65
2023/10/23 07:00:00;;;;;;;;;;;;;;;20.56;60.92;97122.97;608747;233;68227;-65
2023/10/23 07:02:28;;;;;;;;;;;;;;;20.57;60.99;97127.27;606916;229;62401;-66
2023/10/23 07:04:55;;;;;;;;;;;;;;;20.57;59.58;97134.45;605792;229;66112;-65
2023/10/23 07:07:23;;;;;;;;;;;;;;;20.58;57.82;97131.52;604397;229;68092;-66
2023/10/23 07:09:53;;;;;;;;;;;;;;;20.61;53.61;97139.00;605251;229;63212;-66
2023/10/23 07:12:20;;;;;;;;;;;;;;;20.65;56.13;97136.59;602187;234;68988;-64
2023/10/23 07:14:47;;;;;;;;;;;;;;;20.67;56.69;97139.81;601422;235;68873;-65
2023/10/23 07:17:15;;;;;;;;;;;;;;;20.68;57.84;97135.27;602217;235;64381;-66
2023/10/23 07:19:42;;;;;;;;;;;;;;;20.69;59.19;97132.34;602067;235;68498;-66
2023/10/23 07:22:10;;;;;;;;;;;;;;;20.70;59.72;97133.14;602197;235;68703;-66
2023/10/23 07:24:37;;;;;;;;;;;;;;;20.70;58.88;97138.48;602175;235;64853;-65
2023/10/23 07:27:05;;;;;;;;;;;;;;;20.71;54.69;97132.88;602194;235;66574;-66
2023/10/23 07:29:32;;;;;;;;;;;;;;;20.72;54.41;97131.80;602245;235;66457;-68
2023/10/23 07:32:00;;;;;;;;;;;;;;;20.74;53.65;97132.34;602224;235;65271;-67
2023/10/23 07:34:27;;;;;;;;;;;;;;;20.75;54.73;97130.47;602223;235;68756;-65
2023/10/23 07:36:55;;;;;;;;;;;;;;;20.74;52.98;97136.89;602238;235;68318;-64
2023/10/23 07:39:22;;;;;;;;;;;;;;;20.74;54.28;97139.56;602250;235;64652;-66
2023/10/23 07:41:50;;;;;;;;;;;;;;;20.74;56.64;97137.69;602141;235;66497;-66
2023/10/23 07:44:17;;;;;;;;;;;;;;;20.73;57.51;97133.39;602178;235;66754;-68
2023/10/23 07:46:46;;;;;;;;;;;;;;;20.73;58.36;97140.61;602214;235;64622;-66
2023/10/23 07:49:13;;;;;;;;;;;;;;;20.73;54.16;97135.27;602173;235;68446;-66
2023/10/23 07:51:41;;;;;;;;;;;;;;;20.73;58.74;97128.05;602226;235;68713;-67
2023/10/23 07:54:08;;;;;;;;;;;;;;;20.71;59.12;97132.88;602196;235;62487;-67
2023/10/23 07:56:36;;;;;;;;;;;;;;;20.69;58.94;97132.34;602193;235;68562;-66
2023/10/23 07:59:04;;;;;;;;;;;;;;;20.70;59.43;97122.45;602246;235;68620;-67
2023/10/23 08:01:31;;;;;;;;;;;;;;;20.69;59.41;97128.88;603056;235;62712;-66
2023/10/23 08:03:59;;;;;;;;;;;;;;;20.68;59.40;97130.75;604088;235;66349;-66
2023/10/23 08:06:26;;;;;;;;;;;;;;;20.68;58.89;97130.75;604117;235;66464;-66
2023/10/23 08:08:54;;;;;;;;;;;;;;;20.68;59.76;97127.25;604022;235;62612;-67
2023/10/23 08:11:21;;;;;;;;;;;;;;;20.69;60.14;97134.22;604116;235;66775;-67
2023/10/23 08:13:49;;;;;;;;;;;;;;;20.68;59.38;97132.59;604116;235;66499;-67
2023/10/23 08:16:16;;;;;;;;;;;;;;;20.67;59.86;97128.33;604067;235;62403;-67
2023/10/23 08:18:44;;;;;;;;;;;;;;;20.68;59.62;97130.75;604094;235;68750;-67
2023/10/23 08:21:13;;;;;;;;;;;;;;;20.68;59.84;97132.59;604124;235;68700;-67
2023/10/23 08:23:41;;;;;;;;;;;;;;;20.67;59.52;97129.13;604026;235;64578;-67
2023/10/23 08:26:08;;;;;;;;;;;;;;;20.68;60.27;97127.25;604128;235;68751;-65
2023/10/23 08:28:37;;;;;;;;;;;;;;;20.66;58.81;97129.41;604069;235;68518;-65
2023/10/23 08:31:05;;;;;;;;;;;;;;;20.67;59.24;97131.00;604031;235;62801;-66
2023/10/23 08:33:32;;;;;;;;;;;;;;;20.67;59.17;97137.14;604104;235;68720;-67
2023/10/23 08:36:00;;;;;;;;;;;;;;;20.68;59.77;97135.27;604133;235;68696;-66
2023/10/23 08:38:28;;;;;;;;;;;;;;;20.68;61.38;97137.94;604122;235;64876;-67
2023/10/23 08:40:56;;;;;;;;;;;;;;;20.67;60.96;97133.67;604051;235;66492;-66
2023/10/23 08:43:23;;;;;;;;;;;;;;;20.67;59.59;97131.80;604133;235;66573;-72
2023/10/23 08:45:52;;;;;;;;;;;;;;;20.67;60.24;97123.78;604044;235;62607;-66
2023/10/23 08:48:21;;;;;;;;;;;;;;;20.67;59.97;97126.45;604082;235;69782;-67
2023/10/23 08:50:49;;;;;;;;;;;;;;;20.68;59.81;97124.58;607419;232;68479;-67
2023/10/23 08:53:17;;;;;;;;;;;;;;;20.68;59.68;97136.09;610915;232;62424;-68
2023/10/23 08:55:45;;;;;;;;;;;;;;;20.69;59.79;97128.88;610883;232;68796;-65
2023/10/23 08:58:14;;;;;;;;;;;;;;;20.68;59.52;97124.58;610865;232;69065;-66
2023/10/23 09:00:41;;;;;;;;;;;;;;;20.69;59.70;97126.20;610587;232;62784;-66
2023/10/23 09:03:10;;;;;;;;;;;;;;;20.69;60.00;97131.55;608983;233;68636;-66
2023/10/23 09:05:37;;;;;;;;;;;;;;;20.69;60.46;97132.34;608975;233;66619;-66
2023/10/23 09:08:06;;;;;;;;;;;;;;;20.69;60.24;97135.02;608943;233;64727;-65
2023/10/23 09:10:33;;;;;;;;;;;;;;;20.68;59.51;97129.92;609006;233;68825;-67
2023/10/23 09:13:01;;;;;;;;;;;;;;;20.69;60.33;97123.53;608896;233;69736;-65
2023/10/23 09:15:28;;;;;;;;;;;;;;;20.69;60.15;97128.88;608920;233;64432;-66
2023/10/23 09:17:57;;;;;;;;;;;;;;;20.69;59.28;97126.20;609021;233;68348;-67
2023/10/23 09:20:26;;;;;;;;;;;;;;;20.69;60.30;97118.98;608678;230;68787;-66
2023/10/23 09:22:55;;;;;;;;;;;;;;;20.70;60.60;97117.11;604869;233;65513;-65
2023/10/23 09:25:24;;;;;;;;;;;;;;;20.70;60.45;97117.11;604460;233;68808;-65
2023/10/23 09:27:52;;;;;;;;;;;;;;;20.69;59.65;97118.19;605397;232;68508;-65
2023/10/23 09:30:22;;;;;;;;;;;;;;;20.69;57.71;97118.98;607930;232;63336;-65
2023/10/23 09:32:53;;;;;;;;;;;;;;;20.71;58.91;97116.86;606881;232;66388;-66
2023/10/23 09:35:23;;;;;;;;;;;;;;;20.71;58.11;97116.86;610485;232;68773;-67
2023/10/23 09:37:50;;;;;;;;;;;;;;;20.70;58.02;97109.90;610141;232;64722;-66
2023/10/23 09:40:18;;;;;;;;;;;;;;;20.72;57.82;97115.78;610575;232;66610;-66
2023/10/23 09:42:45;;;;;;;;;;;;;;;20.72;55.90;97110.44;610431;232;68616;-66
2023/10/23 09:45:15;;;;;;;;;;;;;;;20.73;58.81;97113.91;605189;233;64734;-66
2023/10/23 09:47:42;;;;;;;;;;;;;;;20.73;59.75;97108.56;601234;236;68776;-67
2023/10/23 09:50:10;;;;;;;;;;;;;;;20.73;60.05;97108.56;601259;236;68728;-67
2023/10/23 09:52:38;;;;;;;;;;;;;;;20.72;60.04;97104.30;601351;236;64696;-67
2023/10/23 09:55:11;;;;;;;;;;;;;;;20.72;59.60;97104.30;601276;236;68564;-67
2023/10/23 09:57:39;;;;;;;;;;;;;;;20.73;57.77;97103.22;601233;236;68647;-67
2023/10/23 10:00:17;;;;;;;;;;;;;;;20.73;56.24;97095.21;601291;236;62574;-66
2023/10/23 10:02:39;;;;;;;;;;;;;;;20.74;60.01;97094.16;602385;235;50827;-67
2023/10/23 10:05:08;;;;;;;;;;;;;;;20.74;60.06;97096.83;607891;232;66404;-67
2023/10/23 10:07:53;;;;;;;;;;;;;;;20.74;60.25;97091.49;609683;231;64790;-67
2023/10/23 10:10:21;;;;;;;;;;;;;;;20.73;60.44;97085.33;609281;233;66635;-66
2023/10/23 10:12:49;;;;;;;;;;;;;;;20.73;60.62;97087.20;609308;233;67100;-65
2023/10/23 10:15:17;;;;;;;;;;;;;;;20.73;58.31;97077.31;609338;233;62399;-66
2023/10/23 10:17:46;;;;;;;;;;;;;;;20.75;59.43;97077.06;609249;233;66435;-67
2023/10/23 10:20:13;;;;;;;;;;;;;;;20.74;59.58;97072.80;609327;233;66288;-66
2023/10/23 10:22:42;;;;;;;;;;;;;;;20.74;56.12;97070.12;609250;233;62391;-66
2023/10/23 10:25:11;;;;;;;;;;;;;;;20.76;59.15;97071.47;609212;233;68543;-66
2023/10/23 10:27:39;;;;;;;;;;;;;;;20.76;59.75;97068.80;609363;233;68687;-66
2023/10/23 10:30:07;;;;;;;;;;;;;;;20.75;60.35;97061.83;609380;233;63240;-67
2023/10/23 10:32:35;;;;;;;;;;;;;;;20.76;60.25;97067.97;609288;233;68485;-66
2023/10/23 10:35:03;;;;;;;;;;;;;;;20.75;59.31;97066.37;609290;233;68662;-66
2023/10/23 10:37:31;;;;;;;;;;;;;;;20.76;60.70;97062.62;609305;233;62633;-69
2023/10/23 10:40:01;;;;;;;;;;;;;;;20.75;60.51;97058.37;609305;233;69031;-68
2023/10/23 10:42:29;;;;;;;;;;;;;;;20.75;60.12;97061.03;609317;233;66542;-68
2023/10/23 10:44:57;;;;;;;;;;;;;;;20.75;59.46;97061.03;603577;229;64920;-66
2023/10/23 10:47:37;;;;;;;;;;;;;;;20.76;55.10;97062.62;606838;229;70387;-67
2023/10/23 10:50:05;;;;;;;;;;;;;;;20.77;54.74;97048.22;607924;229;68454;-69
2023/10/23 10:52:34;;;;;;;;;;;;;;;20.79;56.96;97046.09;607729;229;64705;-68
2023/10/23 10:55:02;;;;;;;;;;;;;;;20.78;59.56;97045.27;609650;229;66157;-69
2023/10/23 10:57:30;;;;;;;;;;;;;;;20.79;59.56;97048.77;605021;229;68507;-68
2023/10/23 10:59:58;;;;;;;;;;;;;;;20.77;59.87;97043.67;606624;229;64565;-67
2023/10/23 11:02:26;;;;;;;;;;;;;;;20.79;59.12;97040.75;605101;229;68484;-68
2023/10/23 11:04:53;;;;;;;;;;;;;;;20.77;58.78;97037.54;606087;229;69680;-68
2023/10/23 11:07:22;;;;;;;;;;;;;;;20.78;57.53;97041.80;607327;229;64625;-68
2023/10/23 11:09:51;;;;;;;;;;;;;;;20.77;58.99;97038.33;609196;229;70945;-68
2023/10/23 11:12:19;;;;;;;;;;;;;;;20.79;59.28;97038.08;610677;232;68414;-67
2023/10/23 11:14:49;;;;;;;;;;;;;;;20.77;57.00;97041.01;610704;232;64712;-67
2023/10/23 11:17:16;;;;;;;;;;;;;;;20.80;54.44;97042.34;610888;232;68630;-67
2023/10/23 11:19:44;;;;;;;;;;;;;;;20.82;54.33;97034.87;610956;232;66112;-67
2023/10/23 11:22:13;;;;;;;;;;;;;;;20.82;54.31;97041.00;610790;232;64902;-68
2023/10/23 11:24:41;;;;;;;;;;;;;;;20.82;54.21;97032.20;610872;230;66697;-68
2023/10/23 11:27:09;;;;;;;;;;;;;;;20.82;54.17;97037.54;609406;232;69195;-67
2023/10/23 11:29:43;;;;;;;;;;;;;;;20.82;54.14;97046.34;606586;232;64583;-67
2023/10/23 11:32:18;;;;;;;;;;;;;;;20.83;54.14;97044.47;610796;232;66595;-66
2023/10/23 11:34:47;;;;;;;;;;;;;;;20.84;54.06;97052.23;610885;232;68625;-66
2023/10/23 11:37:15;;;;;;;;;;;;;;;20.85;54.07;97050.35;610828;232;62816;-65
2023/10/23 11:39:43;;;;;;;;;;;;;;;20.85;54.07;97039.67;610898;232;68606;-66
2023/10/23 11:42:11;;;;;;;;;;;;;;;20.86;54.06;97035.91;610782;232;68689;-66
2023/10/23 11:44:40;;;;;;;;;;;;;;;20.85;54.04;97045.01;609422;232;64744;-66
2023/10/23 11:47:07;;;;;;;;;;;;;;;20.86;54.17;97041.26;605414;233;68362;-66
2023/10/23 11:49:35;;;;;;;;;;;;;;;20.86;54.25;97046.60;607529;232;68377;-66
2023/10/23 11:52:03;;;;;;;;;;;;;;;20.87;54.99;97042.05;606165;233;62266;-66
2023/10/23 11:54:30;;;;;;;;;;;;;;;20.86;56.61;97043.93;608492;233;69063;-65
2023/10/23 11:56:59;;;;;;;;;;;;;;;20.86;58.70;97046.60;609218;233;69407;-66
2023/10/23 11:59:26;;;;;;;;;;;;;;;20.84;54.91;97044.22;609323;233;62593;-65
2023/10/23 12:01:54;;;;;;;;;;;;;;;20.86;54.45;97040.46;609328;233;68877;-67
2023/10/23 12:04:22;;;;;;;;;;;;;;;20.86;54.34;97038.59;609287;233;68643;-66
2023/10/23 12:06:49;;;;;;;;;;;;;;;20.86;54.27;97041.26;609312;233;64535;-67
2023/10/23 12:09:17;;;;;;;;;;;;;;;20.87;54.24;97037.53;609326;233;66317;-66
2023/10/23 12:11:44;;;;;;;;;;;;;;;20.89;54.45;97032.70;605784;229;66416;-67
2023/10/23 12:14:12;;;;;;;;;;;;;;;20.92;54.25;97039.38;607510;229;62594;-66
2023/10/23 12:16:39;;;;;;;;;;;;;;;20.93;54.21;97041.80;605359;229;66403;-66
2023/10/23 12:19:09;;;;;;;;;;;;;;;20.94;54.20;97035.37;604168;232;69396;-67
2023/10/23 12:21:37;;;;;;;;;;;;;;;20.95;54.21;97033.49;610224;232;63382;-66
2023/10/23 12:24:06;;;;;;;;;;;;;;;20.97;54.24;97034.03;610295;232;68835;-67
2023/10/23 12:26:34;;;;;;;;;;;;;;;20.97;54.37;97029.48;606390;232;66718;-66
2023/10/23 12:29:05;;;;;;;;;;;;;;;21.00;54.83;97030.81;603623;229;64891;-65
2023/10/23 12:31:30;;;;;;;;;;;;;;;20.98;54.46;97031.11;603874;229;68812;-66
2023/10/23 12:33:58;;;;;;;;;;;;;;;21.00;54.34;97031.61;607911;229;68321;-66
2023/10/23 12:36:26;;;;;;;;;;;;;;;21.00;54.31;97036.95;607022;229;63514;-67
2023/10/23 12:38:53;;;;;;;;;;;;;;;21.01;54.31;97040.45;607925;229;66387;-65
2023/10/23 12:41:21;;;;;;;;;;;;;;;21.01;54.22;97043.92;604835;229;66411;-65
2023/10/23 12:43:48;;;;;;;;;;;;;;;21.02;54.17;97037.49;605303;229;64960;-65
2023/10/23 12:46:16;;;;;;;;;;;;;;;21.03;54.14;97040.95;607080;229;68610;-65
2023/10/23 12:48:43;;;;;;;;;;;;;;;21.03;54.11;97047.12;604701;229;66422;-65
2023/10/23 12:51:11;;;;;;;;;;;;;;;21.04;54.07;97037.23;608645;229;65562;-67